Aviation Digital Data Service (ADDS)

Output produced by METARs form (1854 UTC 29 August 2015)
found at http://aviationweather.gov/adds/metars/
 
KBAF 291728Z 2918/3018 24005KT P6SM SCT050 
     FM300200 VRB03KT P6SM BKN050